createdAt,value
2018-09-08T00:00:50.001Z,2.30
2018-09-08T00:03:17.308Z,2.50
2018-09-08T00:05:44.611Z,2.30
2018-09-08T00:08:11.854Z,2.52
2018-09-08T00:10:39.124Z,2.60
2018-09-08T00:13:06.295Z,2.50
2018-09-08T00:15:39.367Z,2.50
2018-09-08T00:18:12.296Z,2.20
2018-09-08T00:20:45.456Z,2.20
2018-09-08T00:23:18.261Z,2.30
2018-09-08T00:25:51.136Z,2.17
2018-09-08T00:28:30.051Z,2.30
2018-09-08T00:30:57.903Z,2.50
2018-09-08T00:33:25.155Z,2.40
2018-09-08T00:35:52.412Z,2.55
2018-09-08T00:38:19.630Z,2.12
2018-09-08T00:40:46.849Z,2.27
2018-09-08T00:43:14.101Z,2.20
2018-09-08T00:45:41.438Z,2.20
2018-09-08T00:48:08.631Z,2.20
2018-09-08T00:50:35.843Z,2.20
2018-09-08T00:53:03.107Z,1.77
2018-09-08T00:55:30.320Z,1.80
2018-09-08T00:57:58.514Z,2.17
2018-09-08T01:00:26.026Z,1.70
2018-09-08T01:02:53.236Z,1.90
2018-09-08T01:05:20.467Z,1.70
2018-09-08T01:07:47.729Z,2.27
2018-09-08T01:10:14.992Z,1.90
2018-09-08T01:12:42.300Z,2.37
2018-09-08T01:15:09.571Z,2.00
2018-09-08T01:17:36.910Z,1.93
2018-09-08T01:20:04.261Z,1.90
2018-09-08T01:22:31.487Z,1.98
2018-09-08T01:24:59.564Z,2.37
2018-09-08T01:27:28.060Z,1.80
2018-09-08T01:29:55.311Z,1.80
2018-09-08T01:32:22.598Z,1.90
2018-09-08T01:34:49.898Z,1.85
2018-09-08T01:37:17.167Z,2.20
2018-09-08T01:39:44.406Z,1.80
2018-09-08T01:42:11.649Z,2.10
2018-09-08T01:44:38.875Z,2.17
2018-09-08T01:47:06.108Z,2.30
2018-09-08T01:49:33.351Z,2.10
2018-09-08T01:52:00.597Z,2.02
2018-09-08T01:54:28.803Z,2.20
2018-09-08T01:59:22.728Z,1.97
2018-09-08T02:01:49.988Z,1.80
2018-09-08T02:04:17.437Z,2.17
2018-09-08T02:06:44.697Z,2.30
2018-09-08T02:09:11.927Z,2.00
2018-09-08T02:11:39.228Z,2.33
2018-09-08T02:14:06.503Z,2.10
2018-09-08T02:16:33.730Z,2.10
2018-09-08T02:19:01.091Z,2.22
2018-09-08T02:21:28.307Z,2.55
2018-09-08T02:23:55.535Z,2.42
2018-09-08T02:26:22.903Z,2.40
2018-09-08T02:28:50.145Z,2.40
2018-09-08T02:31:17.442Z,2.20
2018-09-08T02:33:45.055Z,2.70
2018-09-08T02:36:12.308Z,2.83
2018-09-08T02:38:39.584Z,2.47
2018-09-08T02:41:06.923Z,2.47
2018-09-08T02:43:34.126Z,2.70
2018-09-08T02:46:01.413Z,2.60
2018-09-08T02:48:28.774Z,2.70
2018-09-08T02:50:55.059Z,2.90
2018-09-08T02:53:21.324Z,2.70
2018-09-08T02:55:47.654Z,2.70
2018-09-08T02:58:14.763Z,2.90
2018-09-08T03:00:41.047Z,3.05
2018-09-08T03:03:07.343Z,2.90
2018-09-08T03:05:33.639Z,3.30
2018-09-08T03:07:59.965Z,3.20
2018-09-08T03:10:26.264Z,3.50
2018-09-08T03:12:52.545Z,3.30
2018-09-08T03:15:18.812Z,3.58
2018-09-08T03:17:45.150Z,3.70
2018-09-08T03:20:11.416Z,3.65
2018-09-08T03:22:37.751Z,3.40
2018-09-08T03:25:04.074Z,3.57
2018-09-08T03:27:30.352Z,3.20
2018-09-08T03:29:56.645Z,3.58
2018-09-08T03:32:22.949Z,3.20
2018-09-08T03:34:49.301Z,3.50
2018-09-08T03:37:15.567Z,3.65
2018-09-08T03:39:41.869Z,3.50
2018-09-08T03:42:08.128Z,3.53
2018-09-08T03:44:34.399Z,4.00
2018-09-08T03:47:00.713Z,4.30
2018-09-08T03:49:27.063Z,4.30
2018-09-08T03:51:53.349Z,3.80
2018-09-08T03:54:19.695Z,4.67
2018-09-08T03:56:46.012Z,4.75
2018-09-08T03:59:12.344Z,4.90
2018-09-08T04:01:38.766Z,5.27
2018-09-08T04:04:06.033Z,5.07
2018-09-08T04:06:33.272Z,4.70
2018-09-08T04:09:00.497Z,5.00
2018-09-08T04:11:28.043Z,4.22
2018-09-08T04:13:55.249Z,4.30
2018-09-08T04:16:22.467Z,5.20
2018-09-08T04:18:49.697Z,4.60
2018-09-08T04:21:16.925Z,4.70
2018-09-08T04:23:44.176Z,4.90
2018-09-08T04:26:11.436Z,4.83
2018-09-08T04:28:38.674Z,5.03
2018-09-08T04:31:06.421Z,4.90
2018-09-08T04:33:34.150Z,4.80
2018-09-08T04:36:02.127Z,5.15
2018-09-08T04:38:29.475Z,5.27
2018-09-08T04:40:56.753Z,5.10
2018-09-08T04:43:23.988Z,5.20
2018-09-08T04:45:51.544Z,5.78
2018-09-08T04:48:18.800Z,5.85
2018-09-08T04:50:46.046Z,5.65
2018-09-08T04:53:13.360Z,5.50
2018-09-08T04:55:40.573Z,5.40
2018-09-08T04:58:07.819Z,5.67
2018-09-08T05:00:35.203Z,5.30
2018-09-08T05:03:02.466Z,5.50
2018-09-08T05:05:29.704Z,5.58
2018-09-08T05:07:56.958Z,5.12
2018-09-08T05:10:24.172Z,5.50
2018-09-08T05:12:51.479Z,5.70
2018-09-08T05:15:19.217Z,5.90
2018-09-08T05:17:46.443Z,5.70
2018-09-08T05:20:13.662Z,5.90
2018-09-08T05:22:40.873Z,6.30
2018-09-08T05:25:08.156Z,6.30
2018-09-08T05:27:35.377Z,5.70
2018-09-08T05:30:03.057Z,6.08
2018-09-08T05:32:30.289Z,5.80
2018-09-08T05:34:57.539Z,7.35
2018-09-08T05:37:24.851Z,9.25
2018-09-08T05:39:52.181Z,8.48
2018-09-08T05:42:19.408Z,8.10
2018-09-08T05:44:47.107Z,7.30
2018-09-08T05:47:15.264Z,7.58
2018-09-08T05:49:42.572Z,6.40
2018-09-08T05:52:09.985Z,6.10
2018-09-08T05:54:37.300Z,5.70
2018-09-08T05:57:04.604Z,5.60
2018-09-08T05:59:31.845Z,5.58
2018-09-08T06:01:59.294Z,6.10
2018-09-08T06:04:26.611Z,5.33
2018-09-08T06:06:59.744Z,5.90
2018-09-08T06:09:26.967Z,6.10
2018-09-08T06:11:54.161Z,6.50
2018-09-08T06:14:21.741Z,5.58
2018-09-08T06:16:48.990Z,5.90
2018-09-08T06:19:16.306Z,5.70
2018-09-08T06:21:43.620Z,5.42
2018-09-08T06:24:10.884Z,5.83
2018-09-08T06:26:38.224Z,5.83
2018-09-08T06:29:06.295Z,5.75
2018-09-08T06:31:33.514Z,5.90
2018-09-08T06:34:00.755Z,6.80
2018-09-08T06:36:27.951Z,7.40
2018-09-08T06:38:55.198Z,6.33
2018-09-08T06:43:10.383Z,8.43
2018-09-08T06:45:37.595Z,7.60
2018-09-08T06:48:04.781Z,7.15
2018-09-08T06:50:32.099Z,7.10
2018-09-08T06:52:59.319Z,6.90
2018-09-08T06:55:26.729Z,6.30
2018-09-08T06:57:54.016Z,6.20
2018-09-08T07:00:21.356Z,6.60
2018-09-08T07:02:48.629Z,5.78
2018-09-08T07:05:15.899Z,6.50
2018-09-08T07:07:43.196Z,6.20
2018-09-08T07:10:10.477Z,5.90
2018-09-08T07:12:37.727Z,5.67
2018-09-08T07:15:05.465Z,6.10
2018-09-08T07:17:32.824Z,5.35
2018-09-08T07:20:00.100Z,5.62
2018-09-08T07:22:27.349Z,5.83
2018-09-08T07:24:54.660Z,5.90
2018-09-08T07:27:21.999Z,6.00
2018-09-08T07:29:49.240Z,6.43
2018-09-08T07:32:16.482Z,5.55
2018-09-08T07:34:44.709Z,5.45
2018-09-08T07:37:12.021Z,6.17
2018-09-08T07:39:39.273Z,5.20
2018-09-08T07:42:06.739Z,5.55
2018-09-08T07:44:41.968Z,5.60
2018-09-08T07:47:09.193Z,4.95
2018-09-08T07:49:36.402Z,5.00
2018-09-08T07:52:03.673Z,5.00
2018-09-08T07:54:31.032Z,5.50
2018-09-08T07:56:58.224Z,5.00
2018-09-08T07:59:25.715Z,5.10
2018-09-08T08:01:53.153Z,5.08
2018-09-08T08:04:20.484Z,5.53
2018-09-08T08:06:47.864Z,4.97
2018-09-08T08:09:15.143Z,5.00
2018-09-08T08:11:42.390Z,5.10
2018-09-08T08:14:11.014Z,4.83
2018-09-08T08:16:38.435Z,5.05
2018-09-08T08:19:05.812Z,5.10
2018-09-08T08:21:33.091Z,5.00
2018-09-08T08:24:00.385Z,4.85
2018-09-08T08:26:27.652Z,5.40
2018-09-08T08:28:54.960Z,5.13
2018-09-08T08:31:22.312Z,4.70
2018-09-08T08:33:49.595Z,4.40
2018-09-08T08:36:23.373Z,4.97
2018-09-08T08:38:50.720Z,4.62
2018-09-08T08:41:17.974Z,5.00
2018-09-08T08:43:45.230Z,5.25
2018-09-08T08:46:12.578Z,4.95
2018-09-08T08:48:39.939Z,5.70
2018-09-08T08:51:18.688Z,5.12
2018-09-08T08:53:57.568Z,4.50
2018-09-08T08:56:25.219Z,5.00
2018-09-08T08:58:52.499Z,4.80
2018-09-08T09:01:19.857Z,4.90
2018-09-08T09:03:47.218Z,4.80
2018-09-08T09:06:14.504Z,4.70
2018-09-08T09:08:42.229Z,4.53
2018-09-08T09:11:09.123Z,4.35
2018-09-08T09:13:36.552Z,4.40
2018-09-08T09:16:04.884Z,4.95
2018-09-08T09:18:43.955Z,4.40
2018-09-08T09:21:22.868Z,4.30
2018-09-08T09:25:13.122Z,4.55
2018-09-08T09:27:49.561Z,4.70
2018-09-08T09:30:17.827Z,4.45
2018-09-08T09:32:45.165Z,4.08
2018-09-08T09:35:13.697Z,4.37
2018-09-08T09:37:41.384Z,4.45
2018-09-08T09:40:09.495Z,4.00
2018-09-08T09:42:36.749Z,3.90
2018-09-08T09:45:04.264Z,3.98
2018-09-08T09:47:31.511Z,3.70
2018-09-08T09:49:58.731Z,4.08
2018-09-08T09:52:26.109Z,3.70
2018-09-08T09:54:53.431Z,3.50
2018-09-08T09:57:20.719Z,3.50
2018-09-08T09:59:48.071Z,3.40
2018-09-08T10:02:46.085Z,3.67
2018-09-08T10:05:16.195Z,3.10
2018-09-08T10:07:43.607Z,3.40
2018-09-08T10:10:12.828Z,3.27
2018-09-08T10:12:40.159Z,3.00
2018-09-08T10:15:07.775Z,3.15
2018-09-08T10:17:36.411Z,3.33
2018-09-08T10:20:04.519Z,3.47
2018-09-08T10:22:31.801Z,2.83
2018-09-08T10:24:59.243Z,3.20
2018-09-08T10:27:28.240Z,3.03
2018-09-08T10:29:55.524Z,2.80
2018-09-08T10:32:23.204Z,2.90
2018-09-08T10:34:50.626Z,2.33
2018-09-08T10:37:17.863Z,2.80
2018-09-08T10:39:45.126Z,2.40
2018-09-08T10:42:12.428Z,2.58
2018-09-08T10:44:39.856Z,2.55
2018-09-08T10:47:07.316Z,2.22
2018-09-08T10:49:34.620Z,2.30
2018-09-08T10:52:09.643Z,2.60
2018-09-08T10:54:37.000Z,2.58
2018-09-08T10:57:04.241Z,2.70
2018-09-08T10:59:32.066Z,2.70
2018-09-08T11:01:59.490Z,2.47
2018-09-08T11:04:26.765Z,2.50
2018-09-08T11:06:54.088Z,2.60
2018-09-08T11:09:21.378Z,2.10
